sensor_id;sensor_type;location;lat;lon;timestamp;P1;P2;P0
76049;PMS7003;64967;50.234;19.224;2022-12-24T00:01:18;1.00;1.00;1.00
76049;PMS7003;64967;50.234;19.224;2022-12-24T00:03:45;1.00;1.00;1.00
76049;PMS7003;64967;50.234;19.224;2022-12-24T00:06:20;2.25;2.00;1.50
76049;PMS7003;64967;50.234;19.224;2022-12-24T00:08:49;2.25;1.00;1.00
76049;PMS7003;64967;50.234;19.224;2022-12-24T00:11:17;1.50;1.00;1.00
76049;PMS7003;64967;50.234;19.224;2022-12-24T00:13:44;0.00;0.00;0.00
76049;PMS7003;64967;50.234;19.224;2022-12-24T00:16:12;1.00;0.25;0.00
76049;PMS7003;64967;50.234;19.224;2022-12-24T00:18:40;0.00;0.00;0.00
76049;PMS7003;64967;50.234;19.224;2022-12-24T00:21:12;1.50;1.00;1.00
76049;PMS7003;64967;50.234;19.224;2022-12-24T00:23:40;1.00;1.00;0.25
76049;PMS7003;64967;50.234;19.224;2022-12-24T00:26:09;1.00;1.00;1.00
76049;PMS7003;64967;50.234;19.224;2022-12-24T00:28:37;2.00;1.00;1.00
76049;PMS7003;64967;50.234;19.224;2022-12-24T00:31:12;1.25;1.00;0.00
76049;PMS7003;64967;50.234;19.224;2022-12-24T00:33:41;1.00;1.00;1.00
76049;PMS7003;64967;50.234;19.224;2022-12-24T00:36:08;1.00;0.00;0.00
76049;PMS7003;64967;50.234;19.224;2022-12-24T00:38:35;1.00;1.00;0.75
76049;PMS7003;64967;50.234;19.224;2022-12-24T00:41:03;1.00;1.00;1.00
76049;PMS7003;64967;50.234;19.224;2022-12-24T00:43:32;2.00;1.00;1.00
76049;PMS7003;64967;50.234;19.224;2022-12-24T00:45:59;1.25;1.00;1.00
76049;PMS7003;64967;50.234;19.224;2022-12-24T00:48:26;0.00;0.00;0.00
76049;PMS7003;64967;50.234;19.224;2022-12-24T00:50:53;0.50;0.50;0.50
76049;PMS7003;64967;50.234;19.224;2022-12-24T00:53:20;0.50;0.50;0.00
76049;PMS7003;64967;50.234;19.224;2022-12-24T00:55:47;1.00;1.00;0.00
76049;PMS7003;64967;50.234;19.224;2022-12-24T00:58:14;1.50;0.75;0.00
76049;PMS7003;64967;50.234;19.224;2022-12-24T01:00:41;0.00;0.00;0.00
76049;PMS7003;64967;50.234;19.224;2022-12-24T01:03:08;6.00;5.00;3.00
76049;PMS7003;64967;50.234;19.224;2022-12-24T01:05:35;9.00;7.00;6.00
76049;PMS7003;64967;50.234;19.224;2022-12-24T01:08:02;9.00;7.75;6.50
76049;PMS7003;64967;50.234;19.224;2022-12-24T01:10:29;6.75;6.00;3.00
76049;PMS7003;64967;50.234;19.224;2022-12-24T01:12:56;3.50;3.00;1.00
76049;PMS7003;64967;50.234;19.224;2022-12-24T01:15:23;5.50;2.75;2.00
76049;PMS7003;64967;50.234;19.224;2022-12-24T01:17:50;2.00;2.00;1.00
76049;PMS7003;64967;50.234;19.224;2022-12-24T01:20:17;1.50;1.00;0.75
76049;PMS7003;64967;50.234;19.224;2022-12-24T01:22:44;0.25;0.00;0.00
76049;PMS7003;64967;50.234;19.224;2022-12-24T01:25:11;1.00;1.00;1.00
76049;PMS7003;64967;50.234;19.224;2022-12-24T01:27:38;1.00;1.00;0.00
76049;PMS7003;64967;50.234;19.224;2022-12-24T01:30:06;3.00;1.75;0.00
76049;PMS7003;64967;50.234;19.224;2022-12-24T01:32:34;2.00;0.50;0.00
76049;PMS7003;64967;50.234;19.224;2022-12-24T01:35:01;0.00;0.00;0.00
76049;PMS7003;64967;50.234;19.224;2022-12-24T01:37:28;0.00;0.00;0.00
76049;PMS7003;64967;50.234;19.224;2022-12-24T01:39:55;2.00;1.00;1.00
76049;PMS7003;64967;50.234;19.224;2022-12-24T01:42:46;3.00;1.00;1.00
76049;PMS7003;64967;50.234;19.224;2022-12-24T01:45:48;1.00;1.00;0.50
76049;PMS7003;64967;50.234;19.224;2022-12-24T01:48:21;0.00;0.00;0.00
76049;PMS7003;64967;50.234;19.224;2022-12-24T01:50:58;1.00;0.50;0.25
76049;PMS7003;64967;50.234;19.224;2022-12-24T01:53:30;0.25;0.00;0.00
76049;PMS7003;64967;50.234;19.224;2022-12-24T01:56:00;0.00;0.00;0.00
76049;PMS7003;64967;50.234;19.224;2022-12-24T01:58:28;0.25;0.25;0.00
76049;PMS7003;64967;50.234;19.224;2022-12-24T02:00:55;1.00;1.00;0.75
76049;PMS7003;64967;50.234;19.224;2022-12-24T02:03:23;1.00;1.00;1.00
76049;PMS7003;64967;50.234;19.224;2022-12-24T02:05:51;1.00;1.00;0.75
76049;PMS7003;64967;50.234;19.224;2022-12-24T02:08:20;1.00;0.00;0.00
76049;PMS7003;64967;50.234;19.224;2022-12-24T02:10:51;0.50;0.50;0.00
76049;PMS7003;64967;50.234;19.224;2022-12-24T02:13:38;1.50;1.00;1.00
76049;PMS7003;64967;50.234;19.224;2022-12-24T02:19:43;1.50;0.00;0.00
76049;PMS7003;64967;50.234;19.224;2022-12-24T02:25:43;0.25;0.00;0.00
76049;PMS7003;64967;50.234;19.224;2022-12-24T02:31:49;0.00;0.00;0.00
76049;PMS7003;64967;50.234;19.224;2022-12-24T02:39:48;0.00;0.00;0.00
76049;PMS7003;64967;50.234;19.224;2022-12-24T02:42:22;0.00;0.00;0.00
76049;PMS7003;64967;50.234;19.224;2022-12-24T02:45:04;0.00;0.00;0.00
76049;PMS7003;64967;50.234;19.224;2022-12-24T02:47:36;0.00;0.00;0.00
76049;PMS7003;64967;50.234;19.224;2022-12-24T02:50:05;0.75;0.75;0.00
76049;PMS7003;64967;50.234;19.224;2022-12-24T02:52:36;0.00;0.00;0.00
76049;PMS7003;64967;50.234;19.224;2022-12-24T02:57:53;0.00;0.00;0.00
76049;PMS7003;64967;50.234;19.224;2022-12-24T03:09:25;0.00;0.00;0.00
76049;PMS7003;64967;50.234;19.224;2022-12-24T03:12:05;0.00;0.00;0.00
76049;PMS7003;64967;50.234;19.224;2022-12-24T03:14:38;0.00;0.00;0.00
76049;PMS7003;64967;50.234;19.224;2022-12-24T03:17:07;0.00;0.00;0.00
76049;PMS7003;64967;50.234;19.224;2022-12-24T03:19:35;0.00;0.00;0.00
76049;PMS7003;64967;50.234;19.224;2022-12-24T03:22:03;0.00;0.00;0.00
76049;PMS7003;64967;50.234;19.224;2022-12-24T03:24:34;0.00;0.00;0.00
76049;PMS7003;64967;50.234;19.224;2022-12-24T03:27:01;0.00;0.00;0.00
76049;PMS7003;64967;50.234;19.224;2022-12-24T03:29:32;0.00;0.00;0.00
76049;PMS7003;64967;50.234;19.224;2022-12-24T03:32:00;0.00;0.00;0.00
76049;PMS7003;64967;50.234;19.224;2022-12-24T03:34:29;0.00;0.00;0.00
76049;PMS7003;64967;50.234;19.224;2022-12-24T03:36:56;0.75;0.00;0.00
76049;PMS7003;64967;50.234;19.224;2022-12-24T03:39:24;0.00;0.00;0.00
76049;PMS7003;64967;50.234;19.224;2022-12-24T03:41:51;0.00;0.00;0.00
76049;PMS7003;64967;50.234;19.224;2022-12-24T03:44:18;1.00;0.00;0.00
76049;PMS7003;64967;50.234;19.224;2022-12-24T03:46:45;0.00;0.00;0.00
76049;PMS7003;64967;50.234;19.224;2022-12-24T03:49:12;0.00;0.00;0.00
76049;PMS7003;64967;50.234;19.224;2022-12-24T03:51:39;0.00;0.00;0.00
76049;PMS7003;64967;50.234;19.224;2022-12-24T03:54:06;0.00;0.00;0.00
76049;PMS7003;64967;50.234;19.224;2022-12-24T03:56:33;0.25;0.00;0.00
76049;PMS7003;64967;50.234;19.224;2022-12-24T03:59:00;0.25;0.00;0.00
76049;PMS7003;64967;50.234;19.224;2022-12-24T04:01:26;1.75;1.00;0.00
76049;PMS7003;64967;50.234;19.224;2022-12-24T04:03:54;1.50;0.25;0.00
76049;PMS7003;64967;50.234;19.224;2022-12-24T04:06:21;1.00;1.00;0.00
76049;PMS7003;64967;50.234;19.224;2022-12-24T04:08:48;0.00;0.00;0.00
76049;PMS7003;64967;50.234;19.224;2022-12-24T04:11:15;1.25;0.00;0.00
76049;PMS7003;64967;50.234;19.224;2022-12-24T04:13:43;1.00;0.00;0.00
76049;PMS7003;64967;50.234;19.224;2022-12-24T04:16:11;0.00;0.00;0.00
76049;PMS7003;64967;50.234;19.224;2022-12-24T04:18:40;0.25;0.00;0.00
76049;PMS7003;64967;50.234;19.224;2022-12-24T04:21:08;1.00;1.00;0.00
76049;PMS7003;64967;50.234;19.224;2022-12-24T04:23:36;1.00;0.75;0.50
76049;PMS7003;64967;50.234;19.224;2022-12-24T04:26:05;0.00;0.00;0.00
76049;PMS7003;64967;50.234;19.224;2022-12-24T04:28:34;0.50;0.50;0.00
76049;PMS7003;64967;50.234;19.224;2022-12-24T04:31:02;0.00;0.00;0.00
76049;PMS7003;64967;50.234;19.224;2022-12-24T04:33:36;1.00;0.00;0.00
76049;PMS7003;64967;50.234;19.224;2022-12-24T04:36:04;0.00;0.00;0.00
76049;PMS7003;64967;50.234;19.224;2022-12-24T04:38:32;0.00;0.00;0.00
76049;PMS7003;64967;50.234;19.224;2022-12-24T04:41:04;0.00;0.00;0.00
76049;PMS7003;64967;50.234;19.224;2022-12-24T04:43:44;1.75;0.25;0.00
76049;PMS7003;64967;50.234;19.224;2022-12-24T04:46:12;0.00;0.00;0.00
76049;PMS7003;64967;50.234;19.224;2022-12-24T04:48:44;1.00;0.75;0.00
76049;PMS7003;64967;50.234;19.224;2022-12-24T04:51:13;0.50;0.00;0.00
76049;PMS7003;64967;50.234;19.224;2022-12-24T04:53:40;0.00;0.00;0.00
76049;PMS7003;64967;50.234;19.224;2022-12-24T04:56:12;0.00;0.00;0.00
76049;PMS7003;64967;50.234;19.224;2022-12-24T04:58:42;1.00;0.50;0.50
76049;PMS7003;64967;50.234;19.224;2022-12-24T05:01:13;0.50;0.00;0.00
76049;PMS7003;64967;50.234;19.224;2022-12-24T05:03:44;0.00;0.00;0.00
76049;PMS7003;64967;50.234;19.224;2022-12-24T05:06:12;0.00;0.00;0.00
76049;PMS7003;64967;50.234;19.224;2022-12-24T05:08:40;0.25;0.25;0.00
76049;PMS7003;64967;50.234;19.224;2022-12-24T05:11:09;0.00;0.00;0.00
76049;PMS7003;64967;50.234;19.224;2022-12-24T05:13:41;2.00;0.00;0.00
76049;PMS7003;64967;50.234;19.224;2022-12-24T05:16:13;0.00;0.00;0.00
76049;PMS7003;64967;50.234;19.224;2022-12-24T05:18:41;0.00;0.00;0.00
76049;PMS7003;64967;50.234;19.224;2022-12-24T05:21:18;0.00;0.00;0.00
76049;PMS7003;64967;50.234;19.224;2022-12-24T05:23:47;0.25;0.25;0.00
76049;PMS7003;64967;50.234;19.224;2022-12-24T05:26:34;0.00;0.00;0.00
76049;PMS7003;64967;50.234;19.224;2022-12-24T05:29:02;0.00;0.00;0.00
76049;PMS7003;64967;50.234;19.224;2022-12-24T05:31:31;0.00;0.00;0.00
76049;PMS7003;64967;50.234;19.224;2022-12-24T05:33:59;0.00;0.00;0.00
76049;PMS7003;64967;50.234;19.224;2022-12-24T05:36:27;0.00;0.00;0.00
76049;PMS7003;64967;50.234;19.224;2022-12-24T05:38:54;0.00;0.00;0.00
76049;PMS7003;64967;50.234;19.224;2022-12-24T05:41:21;0.00;0.00;0.00
76049;PMS7003;64967;50.234;19.224;2022-12-24T05:43:49;0.00;0.00;0.00
76049;PMS7003;64967;50.234;19.224;2022-12-24T05:46:17;0.75;0.00;0.00
76049;PMS7003;64967;50.234;19.224;2022-12-24T05:48:45;0.00;0.00;0.00
76049;PMS7003;64967;50.234;19.224;2022-12-24T05:51:14;0.25;0.00;0.00
76049;PMS7003;64967;50.234;19.224;2022-12-24T05:53:45;0.00;0.00;0.00
76049;PMS7003;64967;50.234;19.224;2022-12-24T05:56:14;0.75;0.00;0.00
76049;PMS7003;64967;50.234;19.224;2022-12-24T05:58:43;0.00;0.00;0.00
76049;PMS7003;64967;50.234;19.224;2022-12-24T06:01:11;0.00;0.00;0.00
76049;PMS7003;64967;50.234;19.224;2022-12-24T06:03:38;0.75;0.00;0.00
76049;PMS7003;64967;50.234;19.224;2022-12-24T06:06:06;0.00;0.00;0.00
76049;PMS7003;64967;50.234;19.224;2022-12-24T06:08:36;0.00;0.00;0.00
76049;PMS7003;64967;50.234;19.224;2022-12-24T06:11:05;1.00;0.00;0.00
76049;PMS7003;64967;50.234;19.224;2022-12-24T06:13:34;0.00;0.00;0.00
76049;PMS7003;64967;50.234;19.224;2022-12-24T06:16:02;0.00;0.00;0.00
76049;PMS7003;64967;50.234;19.224;2022-12-24T06:18:31;0.75;0.00;0.00
76049;PMS7003;64967;50.234;19.224;2022-12-24T06:20:59;1.00;0.00;0.00
76049;PMS7003;64967;50.234;19.224;2022-12-24T06:23:27;0.00;0.00;0.00
76049;PMS7003;64967;50.234;19.224;2022-12-24T06:25:56;0.00;0.00;0.00
76049;PMS7003;64967;50.234;19.224;2022-12-24T06:28:30;1.00;0.00;0.00
76049;PMS7003;64967;50.234;19.224;2022-12-24T06:30:59;1.00;0.00;0.00
76049;PMS7003;64967;50.234;19.224;2022-12-24T06:33:29;0.00;0.00;0.00
76049;PMS7003;64967;50.234;19.224;2022-12-24T06:35:57;0.00;0.00;0.00
76049;PMS7003;64967;50.234;19.224;2022-12-24T06:38:24;0.00;0.00;0.00
76049;PMS7003;64967;50.234;19.224;2022-12-24T06:40:52;0.00;0.00;0.00
76049;PMS7003;64967;50.234;19.224;2022-12-24T06:43:21;1.25;0.50;0.00
76049;PMS7003;64967;50.234;19.224;2022-12-24T06:45:48;0.75;0.00;0.00
76049;PMS7003;64967;50.234;19.224;2022-12-24T06:48:16;0.00;0.00;0.00
76049;PMS7003;64967;50.234;19.224;2022-12-24T06:50:43;0.00;0.00;0.00
76049;PMS7003;64967;50.234;19.224;2022-12-24T06:53:10;0.00;0.00;0.00
76049;PMS7003;64967;50.234;19.224;2022-12-24T06:55:37;1.00;0.00;0.00
76049;PMS7003;64967;50.234;19.224;2022-12-24T06:58:04;0.00;0.00;0.00
76049;PMS7003;64967;50.234;19.224;2022-12-24T07:00:31;0.50;0.00;0.00
76049;PMS7003;64967;50.234;19.224;2022-12-24T07:02:59;0.00;0.00;0.00
76049;PMS7003;64967;50.234;19.224;2022-12-24T07:05:26;0.00;0.00;0.00
76049;PMS7003;64967;50.234;19.224;2022-12-24T07:07:54;0.00;0.00;0.00
76049;PMS7003;64967;50.234;19.224;2022-12-24T07:10:21;0.00;0.00;0.00
76049;PMS7003;64967;50.234;19.224;2022-12-24T07:12:48;0.00;0.00;0.00
76049;PMS7003;64967;50.234;19.224;2022-12-24T07:15:16;0.00;0.00;0.00
76049;PMS7003;64967;50.234;19.224;2022-12-24T07:17:43;0.00;0.00;0.00
76049;PMS7003;64967;50.234;19.224;2022-12-24T07:20:11;0.00;0.00;0.00
76049;PMS7003;64967;50.234;19.224;2022-12-24T07:22:42;1.00;0.00;0.00
76049;PMS7003;64967;50.234;19.224;2022-12-24T07:25:09;0.00;0.00;0.00
76049;PMS7003;64967;50.234;19.224;2022-12-24T07:27:37;0.00;0.00;0.00
76049;PMS7003;64967;50.234;19.224;2022-12-24T07:30:05;0.00;0.00;0.00
76049;PMS7003;64967;50.234;19.224;2022-12-24T07:32:33;0.00;0.00;0.00
76049;PMS7003;64967;50.234;19.224;2022-12-24T07:35:00;0.00;0.00;0.00
76049;PMS7003;64967;50.234;19.224;2022-12-24T07:37:27;0.00;0.00;0.00
76049;PMS7003;64967;50.234;19.224;2022-12-24T07:39:54;0.00;0.00;0.00
76049;PMS7003;64967;50.234;19.224;2022-12-24T07:42:21;0.00;0.00;0.00
76049;PMS7003;64967;50.234;19.224;2022-12-24T07:44:48;0.00;0.00;0.00
76049;PMS7003;64967;50.234;19.224;2022-12-24T07:47:15;1.00;0.00;0.00
76049;PMS7003;64967;50.234;19.224;2022-12-24T07:49:42;0.00;0.00;0.00
76049;PMS7003;64967;50.234;19.224;2022-12-24T07:52:09;0.00;0.00;0.00
76049;PMS7003;64967;50.234;19.224;2022-12-24T07:54:36;0.00;0.00;0.00
76049;PMS7003;64967;50.234;19.224;2022-12-24T07:57:03;0.00;0.00;0.00
76049;PMS7003;64967;50.234;19.224;2022-12-24T07:59:30;0.00;0.00;0.00
76049;PMS7003;64967;50.234;19.224;2022-12-24T08:01:57;0.00;0.00;0.00
76049;PMS7003;64967;50.234;19.224;2022-12-24T08:04:24;0.00;0.00;0.00
76049;PMS7003;64967;50.234;19.224;2022-12-24T08:06:51;0.00;0.00;0.00
76049;PMS7003;64967;50.234;19.224;2022-12-24T08:09:18;0.50;0.50;0.50
76049;PMS7003;64967;50.234;19.224;2022-12-24T08:11:45;1.00;1.00;1.00
76049;PMS7003;64967;50.234;19.224;2022-12-24T08:14:17;3.00;2.00;2.00
76049;PMS7003;64967;50.234;19.224;2022-12-24T08:16:44;1.50;1.50;1.00
76049;PMS7003;64967;50.234;19.224;2022-12-24T08:19:11;3.75;3.00;2.00
76049;PMS7003;64967;50.234;19.224;2022-12-24T08:21:39;1.75;1.50;1.50
76049;PMS7003;64967;50.234;19.224;2022-12-24T08:24:06;3.50;2.75;2.00
76049;PMS7003;64967;50.234;19.224;2022-12-24T08:26:33;3.25;2.00;1.50
76049;PMS7003;64967;50.234;19.224;2022-12-24T08:29:00;4.25;2.75;2.00
76049;PMS7003;64967;50.234;19.224;2022-12-24T08:31:28;2.50;2.00;1.00
76049;PMS7003;64967;50.234;19.224;2022-12-24T08:33:55;3.00;2.75;2.00
76049;PMS7003;64967;50.234;19.224;2022-12-24T08:36:22;6.00;5.75;3.75
76049;PMS7003;64967;50.234;19.224;2022-12-24T08:38:49;5.75;4.00;2.25
76049;PMS7003;64967;50.234;19.224;2022-12-24T08:41:16;4.75;3.00;2.75
76049;PMS7003;64967;50.234;19.224;2022-12-24T08:43:43;3.00;2.00;1.75
76049;PMS7003;64967;50.234;19.224;2022-12-24T08:46:10;2.00;2.00;2.00
76049;PMS7003;64967;50.234;19.224;2022-12-24T08:48:37;2.00;2.00;2.00
76049;PMS7003;64967;50.234;19.224;2022-12-24T08:51:08;1.00;1.00;1.00
76049;PMS7003;64967;50.234;19.224;2022-12-24T08:53:36;3.75;2.75;2.00
76049;PMS7003;64967;50.234;19.224;2022-12-24T08:56:05;4.25;1.00;1.00
76049;PMS7003;64967;50.234;19.224;2022-12-24T08:58:34;1.00;1.00;1.00
76049;PMS7003;64967;50.234;19.224;2022-12-24T09:01:08;1.75;1.75;1.00
76049;PMS7003;64967;50.234;19.224;2022-12-24T09:03:40;1.25;1.00;1.00
76049;PMS7003;64967;50.234;19.224;2022-12-24T09:06:07;2.00;2.00;1.50
76049;PMS7003;64967;50.234;19.224;2022-12-24T09:08:35;1.00;1.00;1.00
76049;PMS7003;64967;50.234;19.224;2022-12-24T09:11:06;1.25;1.25;1.00
76049;PMS7003;64967;50.234;19.224;2022-12-24T09:13:38;2.00;1.00;1.00
76049;PMS7003;64967;50.234;19.224;2022-12-24T09:16:06;2.00;2.00;2.00
76049;PMS7003;64967;50.234;19.224;2022-12-24T09:18:34;4.00;2.75;2.50
76049;PMS7003;64967;50.234;19.224;2022-12-24T09:21:04;1.00;1.00;1.00
76049;PMS7003;64967;50.234;19.224;2022-12-24T09:23:37;4.00;4.00;3.00
76049;PMS7003;64967;50.234;19.224;2022-12-24T09:26:08;3.00;3.00;2.25
76049;PMS7003;64967;50.234;19.224;2022-12-24T09:28:38;2.75;2.25;2.00
76049;PMS7003;64967;50.234;19.224;2022-12-24T09:31:05;1.00;1.00;0.00
76049;PMS7003;64967;50.234;19.224;2022-12-24T09:33:34;3.75;3.00;2.00
76049;PMS7003;64967;50.234;19.224;2022-12-24T09:36:03;2.75;2.00;2.00
76049;PMS7003;64967;50.234;19.224;2022-12-24T09:38:31;3.50;1.75;1.75
76049;PMS7003;64967;50.234;19.224;2022-12-24T09:40:59;2.25;2.25;2.00
76049;PMS7003;64967;50.234;19.224;2022-12-24T09:43:34;1.75;1.75;1.50
76049;PMS7003;64967;50.234;19.224;2022-12-24T09:46:12;4.00;3.00;3.00
76049;PMS7003;64967;50.234;19.224;2022-12-24T09:48:54;5.00;4.25;2.50
76049;PMS7003;64967;50.234;19.224;2022-12-24T09:51:28;7.50;6.75;4.00
76049;PMS7003;64967;50.234;19.224;2022-12-24T09:54:09;8.25;7.00;6.00
76049;PMS7003;64967;50.234;19.224;2022-12-24T09:56:44;10.25;7.00;6.00
76049;PMS7003;64967;50.234;19.224;2022-12-24T09:59:16;8.50;7.75;4.00
76049;PMS7003;64967;50.234;19.224;2022-12-24T10:01:47;7.75;7.00;5.00
76049;PMS7003;64967;50.234;19.224;2022-12-24T10:04:18;7.00;6.75;4.00
76049;PMS7003;64967;50.234;19.224;2022-12-24T10:20:47;3.50;3.00;2.00
76049;PMS7003;64967;50.234;19.224;2022-12-24T10:23:32;3.25;3.00;2.00
76049;PMS7003;64967;50.234;19.224;2022-12-24T10:34:48;13.25;8.50;7.25
76049;PMS7003;64967;50.234;19.224;2022-12-24T10:37:23;11.25;8.00;6.50
76049;PMS7003;64967;50.234;19.224;2022-12-24T10:39:54;7.25;6.00;4.00
76049;PMS7003;64967;50.234;19.224;2022-12-24T10:42:24;8.25;6.75;4.75
76049;PMS7003;64967;50.234;19.224;2022-12-24T10:45:04;8.25;7.00;4.00
76049;PMS7003;64967;50.234;19.224;2022-12-24T10:47:33;12.50;10.75;7.25
76049;PMS7003;64967;50.234;19.224;2022-12-24T10:50:05;14.75;11.50;8.00
76049;PMS7003;64967;50.234;19.224;2022-12-24T10:52:39;10.50;9.00;7.00
76049;PMS7003;64967;50.234;19.224;2022-12-24T10:55:10;11.75;10.00;8.00
76049;PMS7003;64967;50.234;19.224;2022-12-24T10:57:40;9.00;8.00;6.25
76049;PMS7003;64967;50.234;19.224;2022-12-24T11:00:22;9.25;7.25;6.25
76049;PMS7003;64967;50.234;19.224;2022-12-24T11:03:06;13.00;10.25;7.00
76049;PMS7003;64967;50.234;19.224;2022-12-24T11:05:35;11.25;8.25;6.00
76049;PMS7003;64967;50.234;19.224;2022-12-24T11:08:04;8.25;7.00;5.75
76049;PMS7003;64967;50.234;19.224;2022-12-24T11:10:41;6.00;5.25;4.75
76049;PMS7003;64967;50.234;19.224;2022-12-24T11:39:01;9.00;9.00;7.00
76049;PMS7003;64967;50.234;19.224;2022-12-24T11:41:34;8.00;7.75;5.50
76049;PMS7003;64967;50.234;19.224;2022-12-24T11:44:03;9.00;8.00;6.00
76049;PMS7003;64967;50.234;19.224;2022-12-24T11:55:00;13.00;10.00;8.00
76049;PMS7003;64967;50.234;19.224;2022-12-24T11:57:42;12.75;9.00;7.75
76049;PMS7003;64967;50.234;19.224;2022-12-24T12:00:15;13.75;11.25;7.00
76049;PMS7003;64967;50.234;19.224;2022-12-24T12:02:42;13.00;11.50;8.00
76049;PMS7003;64967;50.234;19.224;2022-12-24T12:05:16;11.00;9.00;7.00
76049;PMS7003;64967;50.234;19.224;2022-12-24T12:07:49;13.00;11.25;9.00
76049;PMS7003;64967;50.234;19.224;2022-12-24T12:10:26;12.50;11.25;8.00
76049;PMS7003;64967;50.234;19.224;2022-12-24T12:13:04;12.75;10.25;8.00
76049;PMS7003;64967;50.234;19.224;2022-12-24T12:15:45;14.00;12.25;9.00
76049;PMS7003;64967;50.234;19.224;2022-12-24T12:21:34;10.25;10.00;8.00
76049;PMS7003;64967;50.234;19.224;2022-12-24T12:24:51;19.50;15.25;10.25
76049;PMS7003;64967;50.234;19.224;2022-12-24T12:27:16;12.75;12.75;8.50
76049;PMS7003;64967;50.234;19.224;2022-12-24T12:30:02;20.25;17.00;12.00
76049;PMS7003;64967;50.234;19.224;2022-12-24T12:32:47;13.00;12.00;8.00
76049;PMS7003;64967;50.234;19.224;2022-12-24T12:35:44;11.00;10.00;9.00
76049;PMS7003;64967;50.234;19.224;2022-12-24T12:38:18;14.50;12.75;9.25
76049;PMS7003;64967;50.234;19.224;2022-12-24T12:41:07;15.25;11.50;10.00
76049;PMS7003;64967;50.234;19.224;2022-12-24T12:47:26;12.25;12.25;8.50
76049;PMS7003;64967;50.234;19.224;2022-12-24T12:50:01;17.25;13.50;9.50
76049;PMS7003;64967;50.234;19.224;2022-12-24T12:53:06;10.00;9.00;7.00
76049;PMS7003;64967;50.234;19.224;2022-12-24T12:58:32;20.50;17.50;13.75
76049;PMS7003;64967;50.234;19.224;2022-12-24T13:01:08;21.00;15.75;13.25
76049;PMS7003;64967;50.234;19.224;2022-12-24T13:17:47;18.00;15.75;9.50
76049;PMS7003;64967;50.234;19.224;2022-12-24T13:20:38;17.75;15.00;11.50
76049;PMS7003;64967;50.234;19.224;2022-12-24T13:25:50;22.50;20.25;14.00
76049;PMS7003;64967;50.234;19.224;2022-12-24T13:30:52;17.50;13.00;9.75
76049;PMS7003;64967;50.234;19.224;2022-12-24T13:36:10;14.25;13.00;8.00
76049;PMS7003;64967;50.234;19.224;2022-12-24T13:38:54;19.75;16.25;12.00
76049;PMS7003;64967;50.234;19.224;2022-12-24T13:46:49;16.00;11.00;8.00
76049;PMS7003;64967;50.234;19.224;2022-12-24T13:52:04;17.75;13.50;12.00
76049;PMS7003;64967;50.234;19.224;2022-12-24T13:54:38;20.50;17.25;11.75
76049;PMS7003;64967;50.234;19.224;2022-12-24T14:00:06;16.50;12.50;8.75
76049;PMS7003;64967;50.234;19.224;2022-12-24T14:02:36;15.50;12.75;9.00
76049;PMS7003;64967;50.234;19.224;2022-12-24T14:05:18;9.00;7.75;6.50
76049;PMS7003;64967;50.234;19.224;2022-12-24T14:07:51;15.50;11.00;8.00
76049;PMS7003;64967;50.234;19.224;2022-12-24T14:10:25;14.00;11.00;7.50
76049;PMS7003;64967;50.234;19.224;2022-12-24T14:13:46;13.50;10.50;8.00
76049;PMS7003;64967;50.234;19.224;2022-12-24T14:16:19;12.25;10.50;8.50
76049;PMS7003;64967;50.234;19.224;2022-12-24T14:18:58;20.00;17.75;11.75
76049;PMS7003;64967;50.234;19.224;2022-12-24T14:21:36;22.25;19.75;12.75
76049;PMS7003;64967;50.234;19.224;2022-12-24T14:24:19;23.50;19.25;12.00
76049;PMS7003;64967;50.234;19.224;2022-12-24T14:26:52;22.75;19.00;12.25
76049;PMS7003;64967;50.234;19.224;2022-12-24T14:29:28;33.25;26.00;17.00
76049;PMS7003;64967;50.234;19.224;2022-12-24T14:31:59;19.00;18.75;14.75
76049;PMS7003;64967;50.234;19.224;2022-12-24T14:34:30;18.75;18.50;12.75
76049;PMS7003;64967;50.234;19.224;2022-12-24T14:36:57;23.25;20.75;14.00
76049;PMS7003;64967;50.234;19.224;2022-12-24T14:39:29;24.00;22.00;16.25
76049;PMS7003;64967;50.234;19.224;2022-12-24T14:44:55;25.75;21.50;15.25
76049;PMS7003;64967;50.234;19.224;2022-12-24T14:53:14;24.75;19.75;13.75
76049;PMS7003;64967;50.234;19.224;2022-12-24T14:55:46;31.75;26.00;18.00
76049;PMS7003;64967;50.234;19.224;2022-12-24T15:00:48;17.50;16.25;12.00
76049;PMS7003;64967;50.234;19.224;2022-12-24T15:03:16;13.25;13.00;10.25
76049;PMS7003;64967;50.234;19.224;2022-12-24T15:05:49;17.25;15.75;11.75
76049;PMS7003;64967;50.234;19.224;2022-12-24T15:08:21;18.25;15.25;11.00
76049;PMS7003;64967;50.234;19.224;2022-12-24T15:11:03;15.25;14.00;11.50
76049;PMS7003;64967;50.234;19.224;2022-12-24T15:16:12;20.75;19.00;13.25
76049;PMS7003;64967;50.234;19.224;2022-12-24T15:18:49;20.25;17.50;12.50
76049;PMS7003;64967;50.234;19.224;2022-12-24T15:21:29;23.00;18.75;14.25
76049;PMS7003;64967;50.234;19.224;2022-12-24T15:24:03;19.25;16.50;13.00
76049;PMS7003;64967;50.234;19.224;2022-12-24T15:26:31;24.25;21.75;16.25
76049;PMS7003;64967;50.234;19.224;2022-12-24T15:29:12;23.00;18.00;12.00
76049;PMS7003;64967;50.234;19.224;2022-12-24T15:31:57;23.75;16.50;12.00
76049;PMS7003;64967;50.234;19.224;2022-12-24T15:34:30;20.00;15.00;11.00
76049;PMS7003;64967;50.234;19.224;2022-12-24T15:37:02;13.00;12.75;9.00
76049;PMS7003;64967;50.234;19.224;2022-12-24T15:42:47;13.00;12.00;9.00
76049;PMS7003;64967;50.234;19.224;2022-12-24T15:45:16;11.75;10.00;8.00
76049;PMS7003;64967;50.234;19.224;2022-12-24T15:50:29;11.50;10.50;7.75
76049;PMS7003;64967;50.234;19.224;2022-12-24T15:53:03;12.75;12.75;9.25
76049;PMS7003;64967;50.234;19.224;2022-12-24T15:56:08;12.50;12.25;9.50
76049;PMS7003;64967;50.234;19.224;2022-12-24T16:06:16;7.75;5.25;3.75
76049;PMS7003;64967;50.234;19.224;2022-12-24T16:08:44;13.25;8.00;6.75
76049;PMS7003;64967;50.234;19.224;2022-12-24T16:11:15;8.00;6.25;6.00
76049;PMS7003;64967;50.234;19.224;2022-12-24T16:16:43;7.50;4.50;3.00
76049;PMS7003;64967;50.234;19.224;2022-12-24T16:21:55;1.00;1.00;1.00
76049;PMS7003;64967;50.234;19.224;2022-12-24T16:26:53;2.00;2.00;2.00
76049;PMS7003;64967;50.234;19.224;2022-12-24T16:29:20;3.00;3.00;3.00
76049;PMS7003;64967;50.234;19.224;2022-12-24T16:31:54;3.00;2.00;2.00
76049;PMS7003;64967;50.234;19.224;2022-12-24T16:34:27;11.50;7.75;5.50
76049;PMS7003;64967;50.234;19.224;2022-12-24T16:36:56;10.25;8.25;6.00
76049;PMS7003;64967;50.234;19.224;2022-12-24T16:39:26;9.25;9.25;7.00
76049;PMS7003;64967;50.234;19.224;2022-12-24T16:41:57;9.75;8.25;6.25
76049;PMS7003;64967;50.234;19.224;2022-12-24T16:44:44;10.50;9.25;7.25
76049;PMS7003;64967;50.234;19.224;2022-12-24T16:47:13;8.50;7.75;6.00
76049;PMS7003;64967;50.234;19.224;2022-12-24T16:49:45;9.50;8.00;6.00
76049;PMS7003;64967;50.234;19.224;2022-12-24T16:52:17;8.00;4.00;3.75
76049;PMS7003;64967;50.234;19.224;2022-12-24T16:54:49;6.75;4.00;3.25
76049;PMS7003;64967;50.234;19.224;2022-12-24T16:57:16;7.50;6.75;5.50
76049;PMS7003;64967;50.234;19.224;2022-12-24T16:59:44;6.25;4.00;3.75
76049;PMS7003;64967;50.234;19.224;2022-12-24T17:02:14;7.25;4.25;3.75
76049;PMS7003;64967;50.234;19.224;2022-12-24T17:04:44;3.75;3.00;3.00
76049;PMS7003;64967;50.234;19.224;2022-12-24T17:07:12;4.00;4.00;3.00
76049;PMS7003;64967;50.234;19.224;2022-12-24T17:09:42;3.75;3.75;2.25